Time;durP1;ratioP1;P1;durP2;ratioP2;P2;SDS_P1;SDS_P2;PMS_P1;PMS_P2;Temp;Humidity;BMP_temperature;BMP_pressure;BME280_temperature;BME280_humidity;BME280_pressure;Samples;Min_cycle;Max_cycle;Signal;HPM_P1;HPM_P2
2021/08/01 00:00:32;;;;;;;3.17;1.67;;;20.70;70.60;;;;;;5013243;28;20088;-75
2021/08/01 00:02:57;;;;;;;4.75;1.65;;;20.60;70.70;;;;;;5013472;28;20124;-75
2021/08/01 00:05:23;;;;;;;4.22;1.85;;;20.60;70.60;;;;;;5012171;28;20113;-78
2021/08/01 00:07:49;;;;;;;4.22;1.73;;;20.60;70.60;;;;;;5012531;28;20076;-75
2021/08/01 00:10:15;;;;;;;2.55;1.48;;;20.60;70.50;;;;;;5011457;28;20041;-75
2021/08/01 00:12:42;;;;;;;2.90;1.55;;;20.60;70.30;;;;;;5013864;28;20590;-74
2021/08/01 00:15:10;;;;;;;1.95;1.25;;;20.60;70.10;;;;;;5008555;28;20026;-76
2021/08/01 00:17:36;;;;;;;3.13;1.27;;;20.60;69.80;;;;;;5011990;28;20072;-75
2021/08/01 00:20:02;;;;;;;4.07;1.40;;;20.50;69.50;;;;;;5012518;28;20026;-76
2021/08/01 00:22:27;;;;;;;2.08;1.40;;;20.50;69.50;;;;;;5009940;28;20025;-75
2021/08/01 00:24:53;;;;;;;2.38;1.40;;;20.60;69.50;;;;;;5013408;28;20029;-76
2021/08/01 00:27:19;;;;;;;2.63;1.50;;;20.50;69.70;;;;;;5010585;28;20079;-75
2021/08/01 00:29:44;;;;;;;6.05;1.75;;;20.50;69.60;;;;;;5012955;28;20030;-76
2021/08/01 00:32:10;;;;;;;5.28;2.00;;;20.60;70.10;;;;;;5011322;28;20357;-76
2021/08/01 00:34:36;;;;;;;2.63;1.90;;;20.50;70.80;;;;;;5010113;28;20026;-76
2021/08/01 00:37:01;;;;;;;4.45;1.60;;;20.50;71.30;;;;;;5011884;28;20021;-77
2021/08/01 00:39:28;;;;;;;2.95;1.65;;;20.50;71.60;;;;;;5011210;28;20045;-76
2021/08/01 00:41:55;;;;;;;4.32;1.80;;;20.40;72.00;;;;;;5012178;28;20506;-76
2021/08/01 00:44:21;;;;;;;3.95;1.70;;;20.40;72.20;;;;;;5005552;28;20026;-76
2021/08/01 00:46:47;;;;;;;4.88;2.10;;;20.40;72.70;;;;;;5011795;28;20455;-76
2021/08/01 00:49:12;;;;;;;2.17;1.73;;;20.40;73.10;;;;;;5028332;28;20117;-71
2021/08/01 00:51:38;;;;;;;4.75;1.80;;;20.30;73.50;;;;;;5007476;28;20117;-72
2021/08/01 00:54:04;;;;;;;2.80;1.70;;;20.40;74.00;;;;;;5013765;28;20026;-71
2021/08/01 00:56:31;;;;;;;1.77;1.67;;;20.40;74.40;;;;;;5011430;28;20041;-72
2021/08/01 00:58:56;;;;;;;3.05;1.83;;;20.40;74.70;;;;;;5011285;28;20472;-72
2021/08/01 01:01:27;;;;;;;3.45;1.80;;;20.30;75.00;;;;;;5010590;28;20106;-74
2021/08/01 01:04:19;;;;;;;3.15;1.83;;;20.30;75.30;;;;;;5010619;28;20050;-71
2021/08/01 01:06:47;;;;;;;;;;;20.40;75.30;;;;;;5010596;28;20459;-71
2021/08/01 01:09:44;;;;;;;3.53;1.67;;;20.30;75.80;;;;;;5012428;28;19906;-72
2021/08/01 01:12:15;;;;;;;6.45;1.88;;;20.20;75.70;;;;;;5010900;28;20026;-71
2021/08/01 01:14:45;;;;;;;2.95;1.60;;;20.20;75.60;;;;;;5012838;28;20093;-72
2021/08/01 01:17:13;;;;;;;3.28;1.70;;;20.10;75.40;;;;;;5011534;28;20033;-71
2021/08/01 01:19:51;;;;;;;5.13;1.80;;;20.10;75.50;;;;;;5011064;28;20034;-71
2021/08/01 01:22:32;;;;;;;5.38;1.83;;;20.10;75.60;;;;;;5002633;28;20025;-71
2021/08/01 01:25:00;;;;;;;5.47;1.58;;;20.00;75.40;;;;;;5012761;28;20156;-71
2021/08/01 01:27:37;;;;;;;4.72;2.10;;;20.00;75.20;;;;;;5011846;28;20033;-71
2021/08/01 01:30:04;;;;;;;4.50;2.17;;;19.90;75.20;;;;;;5012023;28;20034;-71
2021/08/01 01:32:39;;;;;;;4.20;1.70;;;19.90;75.20;;;;;;5011393;28;20022;-71
2021/08/01 01:35:18;;;;;;;4.38;1.83;;;19.90;75.50;;;;;;5013141;28;20075;-72
2021/08/01 01:37:52;;;;;;;5.72;1.85;;;19.90;75.70;;;;;;5010966;28;20030;-72
2021/08/01 01:40:20;;;;;;;3.10;1.98;;;19.90;75.70;;;;;;5011733;28;20037;-71
2021/08/01 01:42:52;;;;;;;4.60;2.10;;;19.80;75.80;;;;;;5011812;28;20022;-71
2021/08/01 01:45:18;;;;;;;3.17;1.58;;;19.80;75.70;;;;;;5011425;28;20034;-71
2021/08/01 01:47:51;;;;;;;2.33;1.83;;;19.80;75.80;;;;;;5010563;28;20041;-71
2021/08/01 01:50:18;;;;;;;4.03;1.80;;;19.80;76.20;;;;;;5011603;28;20030;-71
2021/08/01 01:52:49;;;;;;;8.60;1.95;;;19.80;76.40;;;;;;5010572;28;20022;-71
2021/08/01 01:55:17;;;;;;;4.33;1.70;;;19.70;76.70;;;;;;5011120;28;20069;-71
2021/08/01 01:57:43;;;;;;;3.35;1.88;;;19.70;76.70;;;;;;5010569;28;20147;-71
2021/08/01 02:00:09;;;;;;;3.63;2.15;;;19.70;76.90;;;;;;5011076;28;20029;-71
2021/08/01 02:02:36;;;;;;;4.18;1.90;;;19.70;77.00;;;;;;5009924;28;20045;-71
2021/08/01 02:05:03;;;;;;;4.53;2.00;;;19.60;77.00;;;;;;5010953;28;20072;-72
2021/08/01 02:07:30;;;;;;;4.28;1.90;;;19.60;77.00;;;;;;5011565;28;20467;-71
2021/08/01 02:10:07;;;;;;;3.60;2.08;;;19.50;77.10;;;;;;5012398;28;20037;-71
2021/08/01 02:12:52;;;;;;;2.80;1.92;;;19.50;77.40;;;;;;5010602;28;20105;-71
2021/08/01 02:15:19;;;;;;;3.22;1.83;;;19.50;77.50;;;;;;5010808;28;20022;-72
2021/08/01 02:18:00;;;;;;;3.65;1.95;;;19.50;77.30;;;;;;5010101;28;20045;-72
2021/08/01 02:20:34;;;;;;;5.43;2.03;;;19.50;77.20;;;;;;4992219;28;20031;-71
2021/08/01 02:23:01;;;;;;;3.25;1.73;;;19.50;77.90;;;;;;5007836;28;20030;-72
2021/08/01 02:25:28;;;;;;;2.97;1.95;;;19.60;77.40;;;;;;5009790;28;20033;-71
2021/08/01 02:27:56;;;;;;;6.65;1.90;;;19.60;77.80;;;;;;5010446;28;20084;-72
2021/08/01 02:30:23;;;;;;;4.93;1.83;;;19.60;78.30;;;;;;5010705;28;20122;-75
2021/08/01 02:32:50;;;;;;;2.50;1.65;;;19.60;78.60;;;;;;5012298;28;20490;-71
2021/08/01 02:35:17;;;;;;;4.50;1.75;;;19.60;79.10;;;;;;5011977;28;20473;-71
2021/08/01 02:37:44;;;;;;;3.92;1.92;;;19.60;79.10;;;;;;5010076;28;20121;-71
2021/08/01 02:40:11;;;;;;;5.68;1.70;;;19.50;79.20;;;;;;5009979;28;20034;-71
2021/08/01 02:42:39;;;;;;;3.15;1.90;;;19.50;79.70;;;;;;5009599;28;20513;-71
2021/08/01 02:45:05;;;;;;;3.45;2.13;;;19.50;80.10;;;;;;5011675;28;20032;-73
2021/08/01 02:47:32;;;;;;;4.15;1.63;;;19.40;80.30;;;;;;5009606;28;20021;-73
2021/08/01 02:49:59;;;;;;;2.42;1.67;;;19.50;80.80;;;;;;5010712;28;20463;-72
2021/08/01 02:52:39;;;;;;;7.97;2.00;;;19.40;80.90;;;;;;5010178;28;20026;-72
2021/08/01 02:55:07;;;;;;;5.30;2.30;;;19.40;82.00;;;;;;5010542;28;20394;-72
2021/08/01 02:57:34;;;;;;;4.43;1.95;;;19.40;81.60;;;;;;5011167;28;20018;-71
2021/08/01 03:00:03;;;;;;;4.80;2.10;;;19.30;82.20;;;;;;5010323;28;20499;-71
2021/08/01 03:02:29;;;;;;;4.85;2.15;;;19.30;82.40;;;;;;5010570;28;20100;-71
2021/08/01 03:04:55;;;;;;;4.03;2.25;;;19.30;82.70;;;;;;5014506;28;20459;-72
2021/08/01 03:07:21;;;;;;;6.85;1.88;;;19.20;83.00;;;;;;5013521;28;20030;-71
2021/08/01 03:09:49;;;;;;;3.45;1.70;;;19.10;82.90;;;;;;5013884;28;20029;-71
2021/08/01 03:12:15;;;;;;;3.97;2.00;;;19.20;83.40;;;;;;5013372;28;20095;-72
2021/08/01 03:14:41;;;;;;;3.70;1.95;;;19.20;83.20;;;;;;5014717;28;20451;-71
2021/08/01 03:17:07;;;;;;;5.22;1.80;;;19.20;83.50;;;;;;5013937;28;20034;-72
2021/08/01 03:19:39;;;;;;;3.10;1.92;;;19.20;83.60;;;;;;5013282;28;20034;-72
2021/08/01 03:22:04;;;;;;;;;;;19.10;83.80;;;;;;5014437;28;20143;-72
2021/08/01 03:24:30;;;;;;;4.38;1.75;;;19.20;84.50;;;;;;5014222;28;20378;-71
2021/08/01 03:26:56;;;;;;;6.78;1.90;;;19.20;84.20;;;;;;5013673;28;20112;-71
2021/08/01 03:29:22;;;;;;;3.28;2.20;;;19.20;84.90;;;;;;5014980;28;20076;-70
2021/08/01 03:31:48;;;;;;;6.47;2.38;;;19.10;86.00;;;;;;5014121;28;20120;-71
2021/08/01 03:34:13;;;;;;;5.20;2.15;;;19.10;87.00;;;;;;5015348;28;20050;-71
2021/08/01 03:36:39;;;;;;;5.20;2.08;;;19.00;87.10;;;;;;5014578;28;20127;-72
2021/08/01 03:39:05;;;;;;;4.10;1.88;;;19.00;87.60;;;;;;5014472;28;20364;-72
2021/08/01 03:41:30;;;;;;;3.85;2.25;;;19.00;87.70;;;;;;5013096;28;20418;-71
2021/08/01 03:43:56;;;;;;;3.22;1.95;;;18.80;88.20;;;;;;5014017;28;20502;-71
2021/08/01 03:46:22;;;;;;;3.88;2.35;;;18.80;88.90;;;;;;5013630;28;20018;-71
2021/08/01 03:48:48;;;;;;;5.45;2.33;;;18.80;89.00;;;;;;5014072;28;20481;-71
2021/08/01 03:51:13;;;;;;;6.82;1.90;;;18.70;89.20;;;;;;5013580;28;20440;-70
2021/08/01 03:53:39;;;;;;;6.55;2.20;;;18.80;89.20;;;;;;5014356;28;20030;-71
2021/08/01 03:56:05;;;;;;;6.22;2.20;;;18.70;89.30;;;;;;5013102;28;20412;-71
2021/08/01 03:58:31;;;;;;;3.50;2.03;;;18.70;89.40;;;;;;5012650;28;20076;-71
2021/08/01 04:00:57;;;;;;;2.20;2.00;;;18.70;89.40;;;;;;5014446;28;20022;-71
2021/08/01 04:03:23;;;;;;;7.75;2.42;;;18.70;89.70;;;;;;5013326;28;20104;-75
2021/08/01 04:05:48;;;;;;;5.80;2.33;;;18.70;89.60;;;;;;5013123;28;20025;-71
2021/08/01 04:08:14;;;;;;;3.78;1.85;;;18.70;89.70;;;;;;5012904;28;20381;-71
2021/08/01 04:10:39;;;;;;;3.55;2.22;;;18.70;89.90;;;;;;5012644;28;20030;-71
2021/08/01 04:13:06;;;;;;;2.92;1.95;;;18.60;90.00;;;;;;5013113;28;20033;-71
2021/08/01 04:15:32;;;;;;;4.40;2.38;;;18.60;90.00;;;;;;4998688;28;20109;-71
2021/08/01 04:17:57;;;;;;;6.18;2.22;;;18.60;90.20;;;;;;5011399;28;20034;-72
2021/08/01 04:20:23;;;;;;;4.72;2.38;;;18.60;90.20;;;;;;5013498;28;20080;-74
2021/08/01 04:22:53;;;;;;;4.70;2.10;;;18.50;90.30;;;;;;5012936;28;20486;-71
2021/08/01 04:25:19;;;;;;;5.63;2.42;;;18.50;90.40;;;;;;5013763;28;20057;-71
2021/08/01 04:27:45;;;;;;;4.80;2.30;;;18.40;90.50;;;;;;5011661;28;20038;-71
2021/08/01 04:30:10;;;;;;;4.22;2.28;;;18.40;90.60;;;;;;5012315;28;20030;-71
2021/08/01 04:32:36;;;;;;;2.85;2.15;;;18.40;90.70;;;;;;5013636;28;20022;-71
2021/08/01 04:35:02;;;;;;;4.60;2.28;;;18.40;90.80;;;;;;5014174;28;20137;-71
2021/08/01 04:37:29;;;;;;;4.25;2.28;;;18.40;90.90;;;;;;5011959;28;20463;-71
2021/08/01 04:39:54;;;;;;;2.92;1.90;;;18.40;90.80;;;;;;5013618;28;20045;-73
2021/08/01 04:42:20;;;;;;;4.35;2.30;;;18.40;90.80;;;;;;5012628;28;20025;-71
2021/08/01 04:44:45;;;;;;;4.72;2.10;;;18.40;90.80;;;;;;5011004;28;20482;-72
2021/08/01 04:47:13;;;;;;;4.88;2.55;;;18.50;90.80;;;;;;5012109;28;20033;-72
2021/08/01 04:49:39;;;;;;;5.13;2.20;;;18.50;90.80;;;;;;5011573;28;20045;-71
2021/08/01 04:52:05;;;;;;;3.70;2.42;;;18.50;90.90;;;;;;5012493;28;20491;-71
2021/08/01 04:54:31;;;;;;;4.22;2.53;;;18.50;90.80;;;;;;5013243;28;20108;-71
2021/08/01 04:56:56;;;;;;;4.55;2.13;;;18.50;90.90;;;;;;5012438;28;20117;-71
2021/08/01 04:59:22;;;;;;;2.80;2.30;;;18.50;90.90;;;;;;5013309;28;20041;-72
2021/08/01 05:01:48;;;;;;;4.68;2.40;;;18.50;90.80;;;;;;5013317;28;20356;-71
2021/08/01 05:04:14;;;;;;;4.28;2.25;;;18.50;90.90;;;;;;5011451;28;20026;-71
2021/08/01 05:06:39;;;;;;;3.17;1.90;;;18.40;91.00;;;;;;5013067;28;20109;-71
2021/08/01 05:09:05;;;;;;;4.78;2.55;;;18.40;91.00;;;;;;5013400;28;20112;-71
2021/08/01 05:11:31;;;;;;;4.05;2.25;;;18.40;91.10;;;;;;5011683;28;20061;-71
2021/08/01 05:13:56;;;;;;;4.90;2.30;;;18.40;91.00;;;;;;5013264;28;20076;-72
2021/08/01 05:16:22;;;;;;;6.43;2.50;;;18.40;90.90;;;;;;5012108;28;20025;-71
2021/08/01 05:18:48;;;;;;;2.92;2.22;;;18.40;90.90;;;;;;5011337;28;20034;-71
2021/08/01 05:21:22;;;;;;;3.72;2.03;;;18.40;90.90;;;;;;5011374;28;20026;-71
2021/08/01 05:23:49;;;;;;;3.28;2.33;;;18.40;91.00;;;;;;5012891;28;20411;-71
2021/08/01 05:26:17;;;;;;;3.45;2.25;;;18.40;91.10;;;;;;5010080;28;20038;-71
2021/08/01 05:28:43;;;;;;;4.65;2.28;;;18.40;91.00;;;;;;5011083;28;20029;-71
2021/08/01 05:31:08;;;;;;;4.13;2.58;;;18.40;91.00;;;;;;5011571;28;20026;-71
2021/08/01 05:33:34;;;;;;;4.30;3.05;;;18.40;91.00;;;;;;5011420;28;20108;-71
2021/08/01 05:36:11;;;;;;;4.63;2.10;;;18.40;91.00;;;;;;5011806;28;20057;-71
2021/08/01 05:38:38;;;;;;;4.18;2.17;;;18.40;90.90;;;;;;5012103;28;20501;-71
2021/08/01 05:41:04;;;;;;;5.75;2.22;;;18.40;90.90;;;;;;5012573;28;20022;-72
2021/08/01 05:43:30;;;;;;;5.63;2.35;;;18.40;90.80;;;;;;5010752;28;20394;-71
2021/08/01 05:45:55;;;;;;;5.40;2.22;;;18.40;90.80;;;;;;5012091;28;20030;-72
2021/08/01 05:48:21;;;;;;;2.80;2.28;;;18.40;90.60;;;;;;5010965;28;20165;-71
2021/08/01 05:50:47;;;;;;;4.88;2.08;;;18.40;90.80;;;;;;5010800;28;20045;-71
2021/08/01 05:53:13;;;;;;;4.05;1.85;;;18.40;90.60;;;;;;5012738;28;20018;-71
2021/08/01 05:55:39;;;;;;;3.03;1.88;;;18.40;90.70;;;;;;5011743;28;20022;-71
2021/08/01 05:58:04;;;;;;;3.38;1.90;;;18.30;90.60;;;;;;5010962;28;20087;-71
2021/08/01 06:00:30;;;;;;;3.65;2.08;;;18.30;90.90;;;;;;5010392;28;20026;-71
2021/08/01 06:02:56;;;;;;;3.22;1.80;;;18.30;90.60;;;;;;5011070;28;20475;-72
2021/08/01 06:05:21;;;;;;;2.67;1.67;;;18.30;90.50;;;;;;5011641;28;20479;-71
2021/08/01 06:07:47;;;;;;;6.53;2.22;;;18.30;90.60;;;;;;5010523;28;20026;-71
2021/08/01 06:10:13;;;;;;;4.88;1.90;;;18.30;90.40;;;;;;5012107;28;20022;-71
2021/08/01 06:12:38;;;;;;;2.22;1.65;;;18.40;90.50;;;;;;5010305;28;20455;-71
2021/08/01 06:15:04;;;;;;;3.30;1.83;;;18.30;90.10;;;;;;5010967;28;20114;-72
2021/08/01 06:17:30;;;;;;;5.05;1.98;;;18.30;89.90;;;;;;5011654;28;20463;-72
2021/08/01 06:19:56;;;;;;;3.35;1.48;;;18.40;89.70;;;;;;5010875;28;20040;-72
2021/08/01 06:22:23;;;;;;;3.40;1.70;;;18.40;89.20;;;;;;5010804;28;20418;-72
2021/08/01 06:24:49;;;;;;;3.80;1.50;;;18.40;89.00;;;;;;5011807;28;20021;-72
2021/08/01 06:27:15;;;;;;;4.22;1.52;;;18.30;88.70;;;;;;5010778;28;20034;-72
2021/08/01 06:29:40;;;;;;;4.88;1.50;;;18.40;88.50;;;;;;5010049;28;20040;-72
2021/08/01 06:32:06;;;;;;;4.22;1.35;;;18.50;87.80;;;;;;5010976;28;20049;-72
2021/08/01 06:34:32;;;;;;;2.55;1.20;;;18.50;87.60;;;;;;5012116;28;20029;-72
2021/08/01 06:36:57;;;;;;;2.17;1.20;;;18.50;87.40;;;;;;5011186;28;20026;-72
2021/08/01 06:39:23;;;;;;;3.28;1.13;;;18.50;87.30;;;;;;5014324;28;20038;-75
2021/08/01 06:41:49;;;;;;;3.53;1.40;;;18.60;87.30;;;;;;5014553;28;20026;-72
2021/08/01 06:44:14;;;;;;;2.30;1.48;;;18.50;86.90;;;;;;5014854;28;20063;-71
2021/08/01 06:46:40;;;;;;;2.55;1.10;;;18.60;87.00;;;;;;5013885;28;20444;-71
2021/08/01 06:49:06;;;;;;;2.00;1.70;;;18.50;87.10;;;;;;5015680;28;20160;-71
2021/08/01 06:51:31;;;;;;;1.58;1.10;;;18.50;87.20;;;;;;5013920;28;20379;-71
2021/08/01 06:53:57;;;;;;;3.65;1.40;;;18.50;87.10;;;;;;5014719;28;20030;-72
2021/08/01 06:56:23;;;;;;;3.35;1.35;;;18.50;87.20;;;;;;5014911;28;20037;-71
2021/08/01 06:58:48;;;;;;;4.90;1.40;;;18.60;87.00;;;;;;5013814;28;20045;-71
2021/08/01 07:01:14;;;;;;;3.60;1.38;;;18.60;86.90;;;;;;5014866;28;20525;-72
2021/08/01 07:03:40;;;;;;;3.33;1.45;;;18.60;86.90;;;;;;5015295;28;20131;-72
2021/08/01 07:06:05;;;;;;;3.03;1.15;;;18.60;87.30;;;;;;5013058;28;20037;-72
2021/08/01 07:08:31;;;;;;;2.78;1.70;;;18.60;87.30;;;;;;5013823;28;20033;-72
2021/08/01 07:10:57;;;;;;;3.42;1.58;;;18.80;87.30;;;;;;5013954;28;20426;-73
2021/08/01 07:13:22;;;;;;;2.58;1.38;;;18.80;87.70;;;;;;5015707;28;20740;-71
2021/08/01 07:15:48;;;;;;;3.25;1.40;;;18.80;87.60;;;;;;5015614;28;20026;-71
2021/08/01 07:18:14;;;;;;;2.63;1.63;;;18.80;87.90;;;;;;5015527;28;20025;-71
2021/08/01 07:20:40;;;;;;;3.58;1.40;;;18.80;87.90;;;;;;5013444;28;20041;-72
2021/08/01 07:23:09;;;;;;;3.28;1.45;;;18.80;88.10;;;;;;5015096;28;20034;-72
2021/08/01 07:25:35;;;;;;;5.28;1.50;;;18.80;88.10;;;;;;5012668;28;20463;-72
2021/08/01 07:28:01;;;;;;;6.30;1.60;;;18.80;88.00;;;;;;5014790;28;20029;-72
2021/08/01 07:30:27;;;;;;;3.65;1.55;;;18.90;88.30;;;;;;5013104;28;20430;-71
2021/08/01 07:32:52;;;;;;;3.40;1.52;;;19.00;88.40;;;;;;5014065;28;20116;-71
2021/08/01 07:35:18;;;;;;;3.80;1.70;;;19.10;88.30;;;;;;5015350;28;20021;-71
2021/08/01 07:37:44;;;;;;;3.60;1.50;;;19.10;88.10;;;;;;5013555;28;20036;-72
2021/08/01 07:40:10;;;;;;;4.57;1.50;;;19.20;88.00;;;;;;5014831;28;20034;-72
2021/08/01 07:42:35;;;;;;;3.17;1.50;;;19.30;88.00;;;;;;5012974;28;20403;-71
2021/08/01 07:45:03;;;;;;;5.80;1.52;;;19.30;88.00;;;;;;5013630;28;20037;-72
2021/08/01 07:47:34;;;;;;;3.53;1.65;;;19.30;87.20;;;;;;5012192;28;20029;-72
2021/08/01 07:50:02;;;;;;;2.17;1.40;;;19.30;87.00;;;;;;5013592;28;20022;-72
2021/08/01 07:52:28;;;;;;;2.17;1.55;;;19.30;86.80;;;;;;5012770;28;20034;-71
2021/08/01 07:54:53;;;;;;;4.15;2.22;;;19.30;87.00;;;;;;5013898;28;20502;-71
2021/08/01 07:57:27;;;;;;;3.92;1.63;;;19.30;87.20;;;;;;5014617;28;20494;-72
2021/08/01 07:59:53;;;;;;;7.20;1.83;;;19.30;87.30;;;;;;5014193;28;20056;-72
2021/08/01 08:02:19;;;;;;;5.05;1.77;;;19.30;86.90;;;;;;5012493;28;20053;-73
2021/08/01 08:04:44;;;;;;;3.97;1.60;;;19.40;86.10;;;;;;5011812;28;20030;-72
2021/08/01 08:07:10;;;;;;;4.00;1.88;;;19.40;86.30;;;;;;5012235;28;20383;-71
2021/08/01 08:09:36;;;;;;;3.92;2.05;;;19.50;86.30;;;;;;5009854;28;20036;-72
2021/08/01 08:12:02;;;;;;;2.95;1.88;;;19.50;86.60;;;;;;5013391;28;20018;-73
2021/08/01 08:14:27;;;;;;;4.00;1.58;;;19.50;86.40;;;;;;5012335;28;20030;-72
2021/08/01 08:16:53;;;;;;;3.35;1.50;;;19.50;86.10;;;;;;5029326;28;20092;-72
2021/08/01 08:19:19;;;;;;;2.53;1.58;;;19.60;86.20;;;;;;5012510;28;20030;-73
2021/08/01 08:21:44;;;;;;;2.63;1.52;;;19.60;85.90;;;;;;5010797;28;20029;-72
2021/08/01 08:24:10;;;;;;;4.07;1.95;;;19.70;85.60;;;;;;5012004;28;20471;-72
2021/08/01 08:26:36;;;;;;;2.63;1.67;;;19.80;85.70;;;;;;5012423;28;20026;-73
2021/08/01 08:29:01;;;;;;;5.45;1.90;;;19.80;85.80;;;;;;5013921;28;20034;-73
2021/08/01 08:31:27;;;;;;;3.63;1.98;;;19.80;85.60;;;;;;5009295;28;20130;-72
2021/08/01 08:33:52;;;;;;;5.00;1.98;;;19.80;85.50;;;;;;5007681;28;20348;-73
2021/08/01 08:36:18;;;;;;;3.58;1.67;;;19.80;84.40;;;;;;5013559;28;20478;-72
2021/08/01 08:38:44;;;;;;;3.38;1.77;;;19.80;84.30;;;;;;5005624;28;20045;-72
2021/08/01 08:41:16;;;;;;;4.50;2.05;;;19.80;84.40;;;;;;5010956;28;20025;-72
2021/08/01 08:43:43;;;;;;;3.72;2.00;;;19.80;84.00;;;;;;5009912;28;20026;-72
2021/08/01 08:46:13;;;;;;;3.78;1.85;;;19.80;84.20;;;;;;5010474;28;20076;-72
2021/08/01 08:48:40;;;;;;;4.45;2.25;;;19.80;84.00;;;;;;5011614;28;20030;-73
2021/08/01 08:51:10;;;;;;;4.97;2.15;;;19.70;84.20;;;;;;5010687;28;20034;-73
2021/08/01 08:53:49;;;;;;;3.88;1.98;;;19.60;84.40;;;;;;4998770;28;20092;-73
2021/08/01 08:56:16;;;;;;;3.05;1.60;;;19.70;84.40;;;;;;5012240;28;20030;-76
2021/08/01 08:58:45;;;;;;;5.43;2.10;;;19.80;84.30;;;;;;5011941;28;20026;-76
2021/08/01 09:01:10;;;;;;;5.28;1.80;;;19.80;83.90;;;;;;5013462;28;20037;-75
2021/08/01 09:03:36;;;;;;;5.63;2.13;;;19.80;84.00;;;;;;5012689;28;20045;-79
2021/08/01 09:06:03;;;;;;;4.30;2.15;;;19.80;84.00;;;;;;5013611;28;20026;-80
2021/08/01 09:08:29;;;;;;;5.95;2.10;;;19.90;83.10;;;;;;5012034;28;20057;-75
2021/08/01 09:10:55;;;;;;;4.75;2.00;;;20.00;83.40;;;;;;5014044;28;20057;-78
2021/08/01 09:13:48;;;;;;;3.15;1.80;;;20.10;82.70;;;;;;5013923;28;20471;-76
2021/08/01 09:16:15;;;;;;;5.18;2.17;;;20.20;82.40;;;;;;4997646;28;20025;-75
2021/08/01 09:18:41;;;;;;;4.60;2.30;;;20.20;81.50;;;;;;5011710;28;20025;-75
2021/08/01 09:21:07;;;;;;;3.50;2.10;;;20.20;82.00;;;;;;5012956;28;20029;-75
2021/08/01 09:23:35;;;;;;;4.47;1.90;;;20.30;82.30;;;;;;5012571;28;20492;-76
2021/08/01 09:26:03;;;;;;;3.38;2.20;;;20.30;82.20;;;;;;5011845;28;20037;-76
2021/08/01 09:28:30;;;;;;;3.47;2.22;;;20.20;82.50;;;;;;5011393;28;20116;-76
2021/08/01 09:31:03;;;;;;;2.75;2.10;;;20.30;82.50;;;;;;5011911;28;20066;-76
2021/08/01 09:33:42;;;;;;;2.42;1.83;;;20.30;82.50;;;;;;5011501;28;20463;-76
2021/08/01 09:36:12;;;;;;;3.08;1.98;;;20.40;82.00;;;;;;5011363;28;20030;-75
2021/08/01 09:39:00;;;;;;;4.00;2.20;;;20.50;81.90;;;;;;5007148;28;20025;-75
2021/08/01 09:41:34;;;;;;;3.25;1.88;;;20.50;82.00;;;;;;4998022;28;20034;-76
2021/08/01 09:44:02;;;;;;;3.05;1.90;;;20.60;81.90;;;;;;5009383;28;20409;-76
2021/08/01 09:46:38;;;;;;;4.28;1.95;;;20.60;81.40;;;;;;5011969;28;20026;-75
2021/08/01 09:49:12;;;;;;;4.60;2.00;;;20.60;81.00;;;;;;5012505;28;20033;-77
2021/08/01 09:51:42;;;;;;;3.38;2.10;;;20.60;80.70;;;;;;5010468;28;20057;-76
2021/08/01 09:54:09;;;;;;;3.58;1.92;;;20.70;81.00;;;;;;5012883;28;20022;-76
2021/08/01 09:56:34;;;;;;;2.53;2.15;;;20.70;81.40;;;;;;5012022;28;20053;-75
2021/08/01 09:59:00;;;;;;;3.00;1.90;;;20.60;80.60;;;;;;5012187;28;20037;-75
2021/08/01 10:01:26;;;;;;;3.53;1.90;;;20.60;80.70;;;;;;4999181;28;20375;-76
2021/08/01 10:03:51;;;;;;;4.80;2.40;;;20.60;80.70;;;;;;4992450;28;20050;-77
2021/08/01 10:06:20;;;;;;;2.92;2.20;;;20.70;80.80;;;;;;5012132;28;20538;-75
2021/08/01 10:08:50;;;;;;;3.35;2.15;;;20.60;81.00;;;;;;5010116;28;20032;-74
2021/08/01 10:11:24;;;;;;;2.92;1.85;;;20.80;81.10;;;;;;5010790;28;20076;-76
2021/08/01 10:13:52;;;;;;;5.30;2.15;;;20.80;80.30;;;;;;5012157;28;20022;-74
2021/08/01 10:16:18;;;;;;;5.25;1.95;;;20.90;79.80;;;;;;4995249;28;20032;-74
2021/08/01 10:18:48;;;;;;;3.80;1.98;;;20.90;80.00;;;;;;5010921;28;20068;-75
2021/08/01 10:21:20;;;;;;;3.23;2.00;;;21.00;80.00;;;;;;5012104;28;20053;-74
2021/08/01 10:23:51;;;;;;;5.35;2.33;;;21.00;79.50;;;;;;5010765;28;20550;-78
2021/08/01 10:26:19;;;;;;;3.77;2.03;;;21.00;78.80;;;;;;5012833;28;20029;-76
2021/08/01 10:28:54;;;;;;;3.30;2.13;;;21.10;79.30;;;;;;5010610;28;20029;-76
2021/08/01 10:31:33;;;;;;;4.50;2.17;;;21.20;79.10;;;;;;5011497;28;20033;-76
2021/08/01 10:34:15;;;;;;;4.47;2.30;;;21.10;78.70;;;;;;5012489;28;20054;-75
2021/08/01 10:36:47;;;;;;;4.00;2.00;;;21.10;79.70;;;;;;5012491;28;20026;-78
2021/08/01 10:39:15;;;;;;;3.42;2.42;;;21.20;79.60;;;;;;5011892;28;20510;-76
2021/08/01 10:41:41;;;;;;;5.80;2.08;;;21.20;78.90;;;;;;5012162;28;20129;-75
2021/08/01 10:44:12;;;;;;;3.90;1.90;;;21.30;79.40;;;;;;5012253;28;20487;-75
2021/08/01 10:46:40;;;;;;;2.95;2.00;;;21.20;79.20;;;;;;5007940;28;20533;-75
2021/08/01 10:49:07;;;;;;;2.10;1.90;;;21.30;78.90;;;;;;5010969;28;20046;-75
2021/08/01 10:51:34;;;;;;;3.13;1.90;;;21.40;78.50;;;;;;5010215;28;20029;-76
2021/08/01 10:54:22;;;;;;;1.80;1.58;;;21.30;78.10;;;;;;5010640;28;20052;-75
2021/08/01 10:57:11;;;;;;;3.63;1.95;;;21.30;77.60;;;;;;5009096;28;20026;-76
2021/08/01 10:59:46;;;;;;;2.88;1.73;;;21.40;77.80;;;;;;5010150;28;20032;-76
2021/08/01 11:02:17;;;;;;;5.82;2.08;;;21.30;78.10;;;;;;5010146;28;20041;-77
2021/08/01 11:04:45;;;;;;;3.08;1.90;;;21.30;77.40;;;;;;5027253;28;20033;-76
2021/08/01 11:07:11;;;;;;;5.20;2.20;;;21.20;76.70;;;;;;5012640;28;20036;-73
2021/08/01 11:09:37;;;;;;;2.92;1.85;;;21.30;77.30;;;;;;5011619;28;20111;-74
2021/08/01 11:12:31;;;;;;;4.28;1.92;;;21.30;76.80;;;;;;5010781;28;20526;-73
2021/08/01 11:14:57;;;;;;;2.63;1.52;;;21.30;76.10;;;;;;5012513;28;20065;-73
2021/08/01 11:17:42;;;;;;;6.70;1.80;;;21.40;76.20;;;;;;5010818;28;20046;-73
2021/08/01 11:20:16;;;;;;;2.40;2.05;;;21.50;74.20;;;;;;5012045;28;20104;-73
2021/08/01 11:22:45;;;;;;;2.60;1.52;;;21.70;73.90;;;;;;5009754;28;20045;-74
2021/08/01 11:26:02;;;;;;;2.17;1.80;;;21.90;75.60;;;;;;5013657;28;20068;-73
2021/08/01 11:28:29;;;;;;;2.97;1.55;;;21.90;72.70;;;;;;5001271;28;20368;-73
2021/08/01 11:30:58;;;;;;;3.40;2.00;;;21.90;73.80;;;;;;5012076;28;20029;-75
2021/08/01 11:33:44;;;;;;;2.83;1.90;;;22.10;74.10;;;;;;5014598;28;20030;-77
2021/08/01 11:36:12;;;;;;;2.05;1.67;;;22.20;73.50;;;;;;5014984;28;20033;-75
2021/08/01 11:38:56;;;;;;;5.25;2.00;;;22.10;73.70;;;;;;5014110;28;20030;-76
2021/08/01 11:41:34;;;;;;;2.20;1.58;;;21.90;73.20;;;;;;5014775;28;20072;-76
2021/08/01 11:44:04;;;;;;;3.95;1.50;;;22.00;73.20;;;;;;5014302;28;20026;-74
2021/08/01 11:46:55;;;;;;;2.55;1.50;;;21.90;73.60;;;;;;5014078;28;20467;-77
2021/08/01 11:49:29;;;;;;;2.15;1.60;;;22.20;73.20;;;;;;5017047;28;20030;-75
2021/08/01 11:51:58;;;;;;;2.33;1.58;;;22.30;72.10;;;;;;5016214;28;20403;-76
2021/08/01 11:54:46;;;;;;;3.33;1.45;;;22.30;71.70;;;;;;5016479;28;20116;-77
2021/08/01 11:57:13;;;;;;;3.35;1.70;;;22.30;71.50;;;;;;5015210;28;20034;-76
2021/08/01 11:59:41;;;;;;;2.80;1.40;;;22.40;71.50;;;;;;5014685;28;20068;-77
2021/08/01 12:02:09;;;;;;;2.42;1.30;;;22.30;70.60;;;;;;5014866;28;20049;-76
2021/08/01 12:04:35;;;;;;;2.40;1.65;;;22.30;71.00;;;;;;5015202;28;20455;-77
2021/08/01 12:07:00;;;;;;;2.53;1.50;;;22.40;70.10;;;;;;5030909;28;20029;-76
2021/08/01 12:09:27;;;;;;;4.35;1.50;;;22.30;70.30;;;;;;5013498;28;20430;-74
2021/08/01 12:11:58;;;;;;;2.20;1.23;;;22.20;71.10;;;;;;5013162;28;20022;-74
2021/08/01 12:14:25;;;;;;;3.03;1.77;;;22.30;71.00;;;;;;5015289;28;20072;-76
2021/08/01 12:16:56;;;;;;;2.58;1.35;;;22.50;69.70;;;;;;5014750;28;20065;-75
2021/08/01 12:19:31;;;;;;;3.83;1.20;;;22.70;69.30;;;;;;5011368;28;20375;-76
2021/08/01 12:22:00;;;;;;;2.88;1.30;;;22.80;69.00;;;;;;5014342;28;20033;-76
2021/08/01 12:24:29;;;;;;;2.38;1.30;;;22.70;68.20;;;;;;5013581;28;20394;-75
2021/08/01 12:27:00;;;;;;;1.92;1.25;;;22.50;67.80;;;;;;5013014;28;20026;-76
2021/08/01 12:29:36;;;;;;;;;;;22.30;69.30;;;;;;5011505;28;20025;-75
2021/08/01 12:32:16;;;;;;;2.33;1.00;;;22.10;72.90;;;;;;5014603;28;19906;-73
2021/08/01 12:34:43;;;;;;;3.05;0.80;;;21.70;73.20;;;;;;5012141;28;20021;-73
2021/08/01 12:37:08;;;;;;;1.83;0.85;;;21.50;73.00;;;;;;5013087;28;20084;-73
2021/08/01 12:39:46;;;;;;;1.00;0.68;;;21.30;74.80;;;;;;5012773;28;20474;-75
2021/08/01 12:42:12;;;;;;;1.05;0.85;;;21.20;73.50;;;;;;5011571;28;20026;-75
2021/08/01 12:44:56;;;;;;;1.48;0.82;;;21.00;73.50;;;;;;5013485;28;20083;-73
2021/08/01 12:47:23;;;;;;;1.38;0.77;;;20.80;73.40;;;;;;5012770;28;20026;-73
2021/08/01 12:49:49;;;;;;;1.10;0.60;;;20.60;74.60;;;;;;5011671;28;20088;-73
2021/08/01 12:52:21;;;;;;;1.27;0.70;;;20.50;75.20;;;;;;5012463;28;20057;-73
2021/08/01 12:54:48;;;;;;;0.98;0.50;;;20.50;77.00;;;;;;5009189;28;20026;-73